sensor_id;sensor_type;location;lat;lon;timestamp;pressure;altitude;pressure_sealevel;temperature;humidity
23166;BME280;11751;42.700;24.170;2023-04-28T00:01:14;94087.59;;;6.84;nan
23166;BME280;11751;42.700;24.170;2023-04-28T00:03:39;94093.84;;;6.59;nan
23166;BME280;11751;42.700;24.170;2023-04-28T00:06:05;94102.75;;;6.58;nan
23166;BME280;11751;42.700;24.170;2023-04-28T00:08:31;94092.03;;;6.62;nan
23166;BME280;11751;42.700;24.170;2023-04-28T00:13:21;94108.13;;;6.69;nan
23166;BME280;11751;42.700;24.170;2023-04-28T00:15:48;94101.00;;;6.55;nan
23166;BME280;11751;42.700;24.170;2023-04-28T00:18:14;94104.06;;;6.70;nan
23166;BME280;11751;42.700;24.170;2023-04-28T00:20:39;94105.78;;;6.85;nan
23166;BME280;11751;42.700;24.170;2023-04-28T00:23:05;94109.06;;;6.71;nan
23166;BME280;11751;42.700;24.170;2023-04-28T00:25:30;94098.44;;;6.57;nan
23166;BME280;11751;42.700;24.170;2023-04-28T00:27:55;94097.25;;;6.52;nan
23166;BME280;11751;42.700;24.170;2023-04-28T00:30:21;94107.47;;;6.76;nan
23166;BME280;11751;42.700;24.170;2023-04-28T00:32:47;94098.03;;;6.66;nan
23166;BME280;11751;42.700;24.170;2023-04-28T00:35:12;94100.00;;;6.83;nan
23166;BME280;11751;42.700;24.170;2023-04-28T00:37:38;94112.84;;;6.86;nan
23166;BME280;11751;42.700;24.170;2023-04-28T00:40:04;94104.78;;;6.70;nan
23166;BME280;11751;42.700;24.170;2023-04-28T00:42:29;94104.41;;;6.48;nan
23166;BME280;11751;42.700;24.170;2023-04-28T00:49:46;94116.59;;;6.45;nan
23166;BME280;11751;42.700;24.170;2023-04-28T00:54:39;94102.28;;;6.54;nan
23166;BME280;11751;42.700;24.170;2023-04-28T00:59:32;94109.97;;;6.48;nan
23166;BME280;11751;42.700;24.170;2023-04-28T01:01:59;94104.41;;;6.48;nan
23166;BME280;11751;42.700;24.170;2023-04-28T01:04:25;94096.78;;;6.35;nan
23166;BME280;11751;42.700;24.170;2023-04-28T01:06:52;94094.53;;;6.34;nan
23166;BME280;11751;42.700;24.170;2023-04-28T01:09:18;94095.84;;;6.46;nan
23166;BME280;11751;42.700;24.170;2023-04-28T01:11:43;94101.97;;;6.44;nan
23166;BME280;11751;42.700;24.170;2023-04-28T01:14:09;94099.22;;;6.26;nan
23166;BME280;11751;42.700;24.170;2023-04-28T01:16:34;94093.00;;;6.33;nan
23166;BME280;11751;42.700;24.170;2023-04-28T01:19:01;94097.31;;;6.34;nan
23166;BME280;11751;42.700;24.170;2023-04-28T01:23:57;94086.41;;;6.36;nan
23166;BME280;11751;42.700;24.170;2023-04-28T01:26:22;94086.16;;;6.21;nan
23166;BME280;11751;42.700;24.170;2023-04-28T01:28:48;94095.63;;;6.12;nan
23166;BME280;11751;42.700;24.170;2023-04-28T01:31:13;94092.75;;;6.18;nan
23166;BME280;11751;42.700;24.170;2023-04-28T01:33:38;94097.44;;;6.10;nan
23166;BME280;11751;42.700;24.170;2023-04-28T01:36:04;94096.91;;;6.11;nan
23166;BME280;11751;42.700;24.170;2023-04-28T01:40:55;94084.34;;;6.05;nan
23166;BME280;11751;42.700;24.170;2023-04-28T01:43:20;94081.97;;;5.96;nan
23166;BME280;11751;42.700;24.170;2023-04-28T01:45:46;94089.31;;;6.12;nan
23166;BME280;11751;42.700;24.170;2023-04-28T01:48:11;94098.78;;;6.03;nan
23166;BME280;11751;42.700;24.170;2023-04-28T01:50:36;94088.72;;;6.00;nan
23166;BME280;11751;42.700;24.170;2023-04-28T01:53:02;94092.03;;;5.99;nan
23166;BME280;11751;42.700;24.170;2023-04-28T01:55:27;94083.31;;;6.08;nan
23166;BME280;11751;42.700;24.170;2023-04-28T01:57:52;94089.50;;;6.01;nan
23166;BME280;11751;42.700;24.170;2023-04-28T02:00:18;94087.81;;;6.11;nan
23166;BME280;11751;42.700;24.170;2023-04-28T02:02:44;94087.19;;;6.18;nan
23166;BME280;11751;42.700;24.170;2023-04-28T02:05:09;94084.97;;;6.16;nan
23166;BME280;11751;42.700;24.170;2023-04-28T02:07:36;94082.53;;;6.26;nan
23166;BME280;11751;42.700;24.170;2023-04-28T02:10:01;94082.66;;;6.33;nan
23166;BME280;11751;42.700;24.170;2023-04-28T02:14:52;94097.69;;;6.25;nan
23166;BME280;11751;42.700;24.170;2023-04-28T02:19:43;94097.97;;;6.40;nan
23166;BME280;11751;42.700;24.170;2023-04-28T02:22:08;94098.03;;;6.03;nan
23166;BME280;11751;42.700;24.170;2023-04-28T02:24:34;94102.69;;;5.95;nan
23166;BME280;11751;42.700;24.170;2023-04-28T02:27:01;94091.31;;;5.80;nan
23166;BME280;11751;42.700;24.170;2023-04-28T02:29:27;94098.63;;;5.59;nan
23166;BME280;11751;42.700;24.170;2023-04-28T02:31:54;94093.22;;;5.48;nan
23166;BME280;11751;42.700;24.170;2023-04-28T02:34:19;94091.97;;;5.25;nan
23166;BME280;11751;42.700;24.170;2023-04-28T02:36:45;94114.53;;;5.16;nan
23166;BME280;11751;42.700;24.170;2023-04-28T02:39:12;94099.25;;;4.86;nan
23166;BME280;11751;42.700;24.170;2023-04-28T02:44:03;94116.53;;;4.74;nan
23166;BME280;11751;42.700;24.170;2023-04-28T02:46:28;94114.47;;;4.21;nan
23166;BME280;11751;42.700;24.170;2023-04-28T02:48:54;94112.06;;;4.36;nan
23166;BME280;11751;42.700;24.170;2023-04-28T02:51:19;94110.47;;;4.46;nan
23166;BME280;11751;42.700;24.170;2023-04-28T02:53:44;94113.56;;;4.37;nan
23166;BME280;11751;42.700;24.170;2023-04-28T02:56:10;94120.97;;;4.23;nan
23166;BME280;11751;42.700;24.170;2023-04-28T02:58:36;94117.31;;;4.10;nan
23166;BME280;11751;42.700;24.170;2023-04-28T03:03:26;94112.34;;;4.03;nan
23166;BME280;11751;42.700;24.170;2023-04-28T03:05:52;94129.03;;;3.92;nan
23166;BME280;11751;42.700;24.170;2023-04-28T03:08:17;94129.75;;;3.93;nan
23166;BME280;11751;42.700;24.170;2023-04-28T03:10:45;94122.94;;;3.99;nan
23166;BME280;11751;42.700;24.170;2023-04-28T03:13:10;94128.00;;;3.95;nan
23166;BME280;11751;42.700;24.170;2023-04-28T03:15:35;94125.22;;;3.95;nan
23166;BME280;11751;42.700;24.170;2023-04-28T03:18:01;94128.84;;;3.79;nan
23166;BME280;11751;42.700;24.170;2023-04-28T03:20:26;94140.94;;;3.82;nan
23166;BME280;11751;42.700;24.170;2023-04-28T03:22:52;94143.91;;;3.84;nan
23166;BME280;11751;42.700;24.170;2023-04-28T03:25:18;94153.25;;;3.86;nan
23166;BME280;11751;42.700;24.170;2023-04-28T03:27:43;94150.97;;;3.85;nan
23166;BME280;11751;42.700;24.170;2023-04-28T03:30:09;94152.47;;;3.86;nan
23166;BME280;11751;42.700;24.170;2023-04-28T03:37:25;94172.66;;;3.81;nan
23166;BME280;11751;42.700;24.170;2023-04-28T03:39:51;94178.38;;;3.88;nan
23166;BME280;11751;42.700;24.170;2023-04-28T03:42:16;94164.84;;;3.79;nan
23166;BME280;11751;42.700;24.170;2023-04-28T03:44:42;94163.28;;;3.89;nan
23166;BME280;11751;42.700;24.170;2023-04-28T03:49:32;94185.63;;;3.56;nan
23166;BME280;11751;42.700;24.170;2023-04-28T03:51:58;94180.50;;;3.71;nan
23166;BME280;11751;42.700;24.170;2023-04-28T03:54:23;94181.75;;;3.70;nan
23166;BME280;11751;42.700;24.170;2023-04-28T03:56:49;94200.13;;;3.73;nan
23166;BME280;11751;42.700;24.170;2023-04-28T03:59:14;94202.34;;;3.80;nan
23166;BME280;11751;42.700;24.170;2023-04-28T04:01:39;94196.56;;;3.78;nan
23166;BME280;11751;42.700;24.170;2023-04-28T04:04:05;94209.69;;;3.72;nan
23166;BME280;11751;42.700;24.170;2023-04-28T04:06:31;94201.41;;;3.67;nan
23166;BME280;11751;42.700;24.170;2023-04-28T04:08:57;94215.47;;;3.80;nan
23166;BME280;11751;42.700;24.170;2023-04-28T04:11:22;94216.34;;;4.04;nan
23166;BME280;11751;42.700;24.170;2023-04-28T04:13:47;94202.69;;;4.52;nan
23166;BME280;11751;42.700;24.170;2023-04-28T04:16:13;94216.22;;;5.19;nan
23166;BME280;11751;42.700;24.170;2023-04-28T04:21:07;94221.06;;;6.59;nan
23166;BME280;11751;42.700;24.170;2023-04-28T04:23:32;94211.19;;;7.07;nan
23166;BME280;11751;42.700;24.170;2023-04-28T04:25:58;94224.75;;;7.42;nan
23166;BME280;11751;42.700;24.170;2023-04-28T04:28:23;94220.69;;;7.69;nan
23166;BME280;11751;42.700;24.170;2023-04-28T04:30:48;94230.75;;;8.11;nan
23166;BME280;11751;42.700;24.170;2023-04-28T04:33:14;94237.94;;;8.32;nan
23166;BME280;11751;42.700;24.170;2023-04-28T04:35:39;94229.19;;;8.61;nan
23166;BME280;11751;42.700;24.170;2023-04-28T04:38:05;94237.66;;;9.02;nan
23166;BME280;11751;42.700;24.170;2023-04-28T04:40:31;94242.88;;;9.26;nan
23166;BME280;11751;42.700;24.170;2023-04-28T04:42:57;94234.31;;;9.44;nan
23166;BME280;11751;42.700;24.170;2023-04-28T04:45:22;94236.47;;;9.59;nan
23166;BME280;11751;42.700;24.170;2023-04-28T04:47:48;94247.56;;;9.72;nan
23166;BME280;11751;42.700;24.170;2023-04-28T04:50:13;94241.25;;;10.27;nan
23166;BME280;11751;42.700;24.170;2023-04-28T04:52:39;94247.44;;;10.76;nan
23166;BME280;11751;42.700;24.170;2023-04-28T04:57:30;94251.34;;;11.38;nan
23166;BME280;11751;42.700;24.170;2023-04-28T04:59:56;94256.44;;;11.54;nan
23166;BME280;11751;42.700;24.170;2023-04-28T05:02:21;94256.63;;;12.01;nan
23166;BME280;11751;42.700;24.170;2023-04-28T05:04:47;94261.41;;;12.45;nan
23166;BME280;11751;42.700;24.170;2023-04-28T05:07:12;94256.59;;;12.85;nan
23166;BME280;11751;42.700;24.170;2023-04-28T05:09:38;94266.25;;;13.14;nan
23166;BME280;11751;42.700;24.170;2023-04-28T05:12:03;94265.53;;;13.38;nan
23166;BME280;11751;42.700;24.170;2023-04-28T05:14:29;94260.00;;;13.55;nan
23166;BME280;11751;42.700;24.170;2023-04-28T05:16:54;94259.56;;;13.66;nan
23166;BME280;11751;42.700;24.170;2023-04-28T05:19:19;94254.72;;;13.59;nan
23166;BME280;11751;42.700;24.170;2023-04-28T05:21:45;94263.00;;;13.25;nan
23166;BME280;11751;42.700;24.170;2023-04-28T05:24:13;94260.72;;;13.31;nan
23166;BME280;11751;42.700;24.170;2023-04-28T05:26:38;94260.00;;;13.23;nan
23166;BME280;11751;42.700;24.170;2023-04-28T05:29:04;94256.00;;;13.33;nan
23166;BME280;11751;42.700;24.170;2023-04-28T05:31:29;94259.25;;;13.22;nan
23166;BME280;11751;42.700;24.170;2023-04-28T05:33:55;94254.47;;;13.40;nan
23166;BME280;11751;42.700;24.170;2023-04-28T05:36:20;94260.31;;;13.34;nan
23166;BME280;11751;42.700;24.170;2023-04-28T05:38:46;94261.56;;;13.48;nan
23166;BME280;11751;42.700;24.170;2023-04-28T05:41:12;94252.72;;;13.52;nan
23166;BME280;11751;42.700;24.170;2023-04-28T05:43:37;94260.72;;;13.31;nan
23166;BME280;11751;42.700;24.170;2023-04-28T05:46:02;94254.91;;;13.29;nan
23166;BME280;11751;42.700;24.170;2023-04-28T05:48:28;94258.00;;;13.16;nan
23166;BME280;11751;42.700;24.170;2023-04-28T05:50:53;94262.03;;;12.83;nan
23166;BME280;11751;42.700;24.170;2023-04-28T05:53:19;94263.75;;;12.71;nan
23166;BME280;11751;42.700;24.170;2023-04-28T05:55:44;94266.16;;;12.82;nan
23166;BME280;11751;42.700;24.170;2023-04-28T05:58:10;94261.59;;;12.47;nan
23166;BME280;11751;42.700;24.170;2023-04-28T06:00:35;94264.09;;;12.28;nan
23166;BME280;11751;42.700;24.170;2023-04-28T06:03:00;94268.97;;;12.05;nan
23166;BME280;11751;42.700;24.170;2023-04-28T06:05:26;94268.78;;;12.11;nan
23166;BME280;11751;42.700;24.170;2023-04-28T06:07:51;94269.31;;;12.32;nan
23166;BME280;11751;42.700;24.170;2023-04-28T06:10:18;94265.03;;;12.01;nan
23166;BME280;11751;42.700;24.170;2023-04-28T06:12:44;94267.09;;;11.71;nan
23166;BME280;11751;42.700;24.170;2023-04-28T06:15:10;94264.03;;;11.46;nan
23166;BME280;11751;42.700;24.170;2023-04-28T06:17:37;94263.38;;;11.83;nan
23166;BME280;11751;42.700;24.170;2023-04-28T06:20:03;94261.84;;;11.90;nan
23166;BME280;11751;42.700;24.170;2023-04-28T06:22:29;94256.44;;;11.92;nan
23166;BME280;11751;42.700;24.170;2023-04-28T06:24:54;94253.63;;;11.92;nan
23166;BME280;11751;42.700;24.170;2023-04-28T06:27:20;94253.44;;;12.04;nan
23166;BME280;11751;42.700;24.170;2023-04-28T06:29:45;94257.75;;;12.13;nan
23166;BME280;11751;42.700;24.170;2023-04-28T06:32:10;94259.38;;;12.31;nan
23166;BME280;11751;42.700;24.170;2023-04-28T06:34:36;94261.47;;;12.15;nan
23166;BME280;11751;42.700;24.170;2023-04-28T06:37:02;94258.13;;;11.65;nan
23166;BME280;11751;42.700;24.170;2023-04-28T06:39:27;94259.44;;;11.93;nan
23166;BME280;11751;42.700;24.170;2023-04-28T06:41:53;94265.00;;;12.23;nan
23166;BME280;11751;42.700;24.170;2023-04-28T06:44:18;94261.47;;;12.00;nan
23166;BME280;11751;42.700;24.170;2023-04-28T06:46:44;94264.09;;;12.21;nan
23166;BME280;11751;42.700;24.170;2023-04-28T06:49:10;94258.03;;;12.39;nan
23166;BME280;11751;42.700;24.170;2023-04-28T06:51:35;94259.94;;;12.37;nan
23166;BME280;11751;42.700;24.170;2023-04-28T06:54:01;94267.69;;;12.68;nan
23166;BME280;11751;42.700;24.170;2023-04-28T06:56:26;94266.53;;;12.86;nan
23166;BME280;11751;42.700;24.170;2023-04-28T06:58:54;94270.84;;;12.87;nan
23166;BME280;11751;42.700;24.170;2023-04-28T07:01:19;94270.63;;;13.00;nan
23166;BME280;11751;42.700;24.170;2023-04-28T07:03:45;94274.69;;;13.14;nan
23166;BME280;11751;42.700;24.170;2023-04-28T07:06:10;94271.59;;;13.27;nan
23166;BME280;11751;42.700;24.170;2023-04-28T07:08:36;94263.53;;;13.31;nan
23166;BME280;11751;42.700;24.170;2023-04-28T07:11:01;94268.53;;;13.40;nan
23166;BME280;11751;42.700;24.170;2023-04-28T07:13:29;94265.91;;;13.42;nan
23166;BME280;11751;42.700;24.170;2023-04-28T07:15:54;94262.81;;;13.55;nan
23166;BME280;11751;42.700;24.170;2023-04-28T07:18:20;94262.47;;;13.99;nan
23166;BME280;11751;42.700;24.170;2023-04-28T07:20:45;94252.59;;;14.15;nan
23166;BME280;11751;42.700;24.170;2023-04-28T07:23:12;94262.13;;;13.95;nan
23166;BME280;11751;42.700;24.170;2023-04-28T07:25:37;94258.69;;;14.04;nan
23166;BME280;11751;42.700;24.170;2023-04-28T07:28:05;94249.16;;;13.75;nan
23166;BME280;11751;42.700;24.170;2023-04-28T07:30:32;94251.56;;;14.03;nan
23166;BME280;11751;42.700;24.170;2023-04-28T07:32:58;94256.13;;;14.23;nan
23166;BME280;11751;42.700;24.170;2023-04-28T07:35:24;94252.78;;;14.34;nan
23166;BME280;11751;42.700;24.170;2023-04-28T07:37:49;94259.03;;;14.08;nan
23166;BME280;11751;42.700;24.170;2023-04-28T07:40:15;94245.34;;;14.29;nan
23166;BME280;11751;42.700;24.170;2023-04-28T07:42:41;94242.69;;;14.31;nan
23166;BME280;11751;42.700;24.170;2023-04-28T07:45:07;94245.94;;;14.45;nan
23166;BME280;11751;42.700;24.170;2023-04-28T07:47:33;94244.19;;;14.32;nan
23166;BME280;11751;42.700;24.170;2023-04-28T07:50:00;94239.81;;;14.55;nan
23166;BME280;11751;42.700;24.170;2023-04-28T07:52:29;94241.00;;;15.13;nan
23166;BME280;11751;42.700;24.170;2023-04-28T07:54:54;94242.69;;;14.99;nan
23166;BME280;11751;42.700;24.170;2023-04-28T07:57:19;94232.03;;;15.24;nan
23166;BME280;11751;42.700;24.170;2023-04-28T07:59:45;94242.94;;;15.27;nan
23166;BME280;11751;42.700;24.170;2023-04-28T08:02:10;94237.28;;;15.53;nan
23166;BME280;11751;42.700;24.170;2023-04-28T08:04:38;94242.13;;;15.43;nan
23166;BME280;11751;42.700;24.170;2023-04-28T08:07:03;94220.66;;;15.57;nan
23166;BME280;11751;42.700;24.170;2023-04-28T08:09:29;94234.44;;;15.80;nan
23166;BME280;11751;42.700;24.170;2023-04-28T08:11:54;94225.50;;;15.74;nan
23166;BME280;11751;42.700;24.170;2023-04-28T08:14:20;94230.03;;;15.96;nan
23166;BME280;11751;42.700;24.170;2023-04-28T08:16:45;94227.56;;;16.09;nan
23166;BME280;11751;42.700;24.170;2023-04-28T08:19:11;94230.53;;;16.11;nan
23166;BME280;11751;42.700;24.170;2023-04-28T08:21:36;94235.78;;;16.24;nan
23166;BME280;11751;42.700;24.170;2023-04-28T08:24:02;94228.47;;;16.21;nan
23166;BME280;11751;42.700;24.170;2023-04-28T08:26:28;94217.16;;;16.21;nan
23166;BME280;11751;42.700;24.170;2023-04-28T08:28:53;94227.88;;;16.13;nan
23166;BME280;11751;42.700;24.170;2023-04-28T08:31:18;94212.25;;;16.12;nan
23166;BME280;11751;42.700;24.170;2023-04-28T08:33:44;94206.59;;;16.12;nan
23166;BME280;11751;42.700;24.170;2023-04-28T08:36:13;94209.63;;;16.24;nan
23166;BME280;11751;42.700;24.170;2023-04-28T08:38:39;94211.91;;;16.44;nan
23166;BME280;11751;42.700;24.170;2023-04-28T08:41:06;94208.34;;;16.53;nan
23166;BME280;11751;42.700;24.170;2023-04-28T08:43:35;94206.84;;;16.71;nan
23166;BME280;11751;42.700;24.170;2023-04-28T08:46:05;94205.59;;;16.17;nan
23166;BME280;11751;42.700;24.170;2023-04-28T08:48:40;94205.81;;;16.47;nan
23166;BME280;11751;42.700;24.170;2023-04-28T08:51:07;94192.88;;;15.54;nan
23166;BME280;11751;42.700;24.170;2023-04-28T08:53:37;94190.41;;;15.32;nan
23166;BME280;11751;42.700;24.170;2023-04-28T08:56:04;94193.47;;;15.88;nan
23166;BME280;11751;42.700;24.170;2023-04-28T08:58:31;94197.72;;;15.70;nan
23166;BME280;11751;42.700;24.170;2023-04-28T09:00:56;94199.69;;;15.87;nan
23166;BME280;11751;42.700;24.170;2023-04-28T09:03:22;94198.78;;;15.84;nan
23166;BME280;11751;42.700;24.170;2023-04-28T09:08:22;94191.63;;;15.21;nan
23166;BME280;11751;42.700;24.170;2023-04-28T09:11:13;94191.97;;;15.51;nan
23166;BME280;11751;42.700;24.170;2023-04-28T09:13:39;94186.44;;;15.44;nan
23166;BME280;11751;42.700;24.170;2023-04-28T09:16:05;94185.47;;;15.58;nan
23166;BME280;11751;42.700;24.170;2023-04-28T09:18:31;94187.50;;;15.48;nan
23166;BME280;11751;42.700;24.170;2023-04-28T09:21:09;94190.78;;;15.54;nan
23166;BME280;11751;42.700;24.170;2023-04-28T09:23:48;94188.63;;;16.17;nan
23166;BME280;11751;42.700;24.170;2023-04-28T09:26:15;94186.22;;;16.04;nan
23166;BME280;11751;42.700;24.170;2023-04-28T09:28:40;94179.63;;;15.92;nan
23166;BME280;11751;42.700;24.170;2023-04-28T09:31:22;94170.72;;;15.86;nan
23166;BME280;11751;42.700;24.170;2023-04-28T09:33:58;94179.06;;;15.94;nan
23166;BME280;11751;42.700;24.170;2023-04-28T09:36:28;94182.31;;;15.90;nan
23166;BME280;11751;42.700;24.170;2023-04-28T09:38:58;94171.44;;;15.77;nan
23166;BME280;11751;42.700;24.170;2023-04-28T09:41:44;94184.16;;;15.69;nan
23166;BME280;11751;42.700;24.170;2023-04-28T09:44:14;94176.03;;;15.82;nan
23166;BME280;11751;42.700;24.170;2023-04-28T09:46:41;94178.78;;;15.99;nan
23166;BME280;11751;42.700;24.170;2023-04-28T09:49:07;94172.09;;;16.04;nan
23166;BME280;11751;42.700;24.170;2023-04-28T09:51:33;94167.47;;;15.99;nan
23166;BME280;11751;42.700;24.170;2023-04-28T09:54:00;94170.88;;;15.88;nan
23166;BME280;11751;42.700;24.170;2023-04-28T09:56:28;94172.81;;;15.95;nan
23166;BME280;11751;42.700;24.170;2023-04-28T09:58:56;94167.78;;;16.03;nan
23166;BME280;11751;42.700;24.170;2023-04-28T10:01:24;94149.03;;;15.98;nan
23166;BME280;11751;42.700;24.170;2023-04-28T10:03:51;94145.06;;;15.65;nan
23166;BME280;11751;42.700;24.170;2023-04-28T10:06:18;94169.66;;;15.20;nan
23166;BME280;11751;42.700;24.170;2023-04-28T10:08:43;94164.44;;;14.90;nan
23166;BME280;11751;42.700;24.170;2023-04-28T10:11:13;94157.31;;;15.15;nan
23166;BME280;11751;42.700;24.170;2023-04-28T10:13:41;94161.63;;;15.42;nan
23166;BME280;11751;42.700;24.170;2023-04-28T10:16:07;94153.03;;;15.95;nan
23166;BME280;11751;42.700;24.170;2023-04-28T10:18:34;94144.97;;;15.11;nan
23166;BME280;11751;42.700;24.170;2023-04-28T10:21:02;94162.34;;;15.17;nan
23166;BME280;11751;42.700;24.170;2023-04-28T10:26:11;94161.84;;;15.54;nan
23166;BME280;11751;42.700;24.170;2023-04-28T10:28:45;94159.38;;;15.77;nan
23166;BME280;11751;42.700;24.170;2023-04-28T10:31:12;94145.69;;;15.73;nan
23166;BME280;11751;42.700;24.170;2023-04-28T10:33:39;94140.66;;;15.10;nan
23166;BME280;11751;42.700;24.170;2023-04-28T10:36:05;94153.06;;;14.80;nan
23166;BME280;11751;42.700;24.170;2023-04-28T10:38:32;94156.28;;;14.67;nan
23166;BME280;11751;42.700;24.170;2023-04-28T10:40:57;94162.59;;;15.02;nan
23166;BME280;11751;42.700;24.170;2023-04-28T10:56:26;94144.44;;;15.22;nan
23166;BME280;11751;42.700;24.170;2023-04-28T10:58:52;94149.00;;;15.17;nan
23166;BME280;11751;42.700;24.170;2023-04-28T11:06:22;94149.47;;;14.97;nan
23166;BME280;11751;42.700;24.170;2023-04-28T11:08:54;94141.25;;;14.65;nan
23166;BME280;11751;42.700;24.170;2023-04-28T11:11:25;94144.19;;;14.84;nan
23166;BME280;11751;42.700;24.170;2023-04-28T11:13:52;94136.69;;;15.22;nan
23166;BME280;11751;42.700;24.170;2023-04-28T11:16:23;94138.13;;;15.31;nan
23166;BME280;11751;42.700;24.170;2023-04-28T11:18:59;94130.13;;;15.37;nan
23166;BME280;11751;42.700;24.170;2023-04-28T11:21:28;94135.31;;;15.31;nan
23166;BME280;11751;42.700;24.170;2023-04-28T11:23:55;94130.59;;;15.97;nan
23166;BME280;11751;42.700;24.170;2023-04-28T11:26:21;94135.00;;;16.36;nan
23166;BME280;11751;42.700;24.170;2023-04-28T11:28:52;94130.69;;;16.54;nan
23166;BME280;11751;42.700;24.170;2023-04-28T11:31:19;94128.75;;;16.56;nan
23166;BME280;11751;42.700;24.170;2023-04-28T11:33:50;94132.63;;;16.32;nan
23166;BME280;11751;42.700;24.170;2023-04-28T11:36:26;94120.56;;;16.32;nan
23166;BME280;11751;42.700;24.170;2023-04-28T11:38:54;94120.03;;;15.98;nan
23166;BME280;11751;42.700;24.170;2023-04-28T11:41:20;94117.22;;;15.88;nan
23166;BME280;11751;42.700;24.170;2023-04-28T11:43:46;94117.13;;;16.43;nan
23166;BME280;11751;42.700;24.170;2023-04-28T11:46:16;94121.59;;;16.65;nan
23166;BME280;11751;42.700;24.170;2023-04-28T11:48:41;94118.13;;;16.95;nan
23166;BME280;11751;42.700;24.170;2023-04-28T11:51:07;94112.50;;;16.76;nan
23166;BME280;11751;42.700;24.170;2023-04-28T11:53:45;94116.41;;;16.61;nan
23166;BME280;11751;42.700;24.170;2023-04-28T11:56:10;94105.38;;;16.75;nan
23166;BME280;11751;42.700;24.170;2023-04-28T11:58:38;94107.56;;;16.95;nan
23166;BME280;11751;42.700;24.170;2023-04-28T12:01:11;94112.50;;;16.76;nan
23166;BME280;11751;42.700;24.170;2023-04-28T12:03:46;94099.41;;;16.71;nan
23166;BME280;11751;42.700;24.170;2023-04-28T12:06:16;94094.34;;;16.79;nan
23166;BME280;11751;42.700;24.170;2023-04-28T12:08:43;94095.31;;;17.12;nan
23166;BME280;11751;42.700;24.170;2023-04-28T12:11:10;94086.44;;;17.45;nan
23166;BME280;11751;42.700;24.170;2023-04-28T12:13:37;94087.13;;;17.55;nan
23166;BME280;11751;42.700;24.170;2023-04-28T12:16:04;94085.69;;;17.75;nan
23166;BME280;11751;42.700;24.170;2023-04-28T12:18:34;94086.47;;;17.66;nan
23166;BME280;11751;42.700;24.170;2023-04-28T12:21:01;94085.53;;;16.84;nan
23166;BME280;11751;42.700;24.170;2023-04-28T12:23:33;94085.16;;;16.50;nan
23166;BME280;11751;42.700;24.170;2023-04-28T12:26:00;94079.00;;;16.82;nan
23166;BME280;11751;42.700;24.170;2023-04-28T12:28:39;94067.72;;;17.21;nan
23166;BME280;11751;42.700;24.170;2023-04-28T12:31:07;94077.81;;;16.85;nan
23166;BME280;11751;42.700;24.170;2023-04-28T12:33:34;94071.75;;;16.22;nan
23166;BME280;11751;42.700;24.170;2023-04-28T12:36:02;94073.09;;;16.68;nan
23166;BME280;11751;42.700;24.170;2023-04-28T12:38:29;94065.06;;;16.55;nan
23166;BME280;11751;42.700;24.170;2023-04-28T12:40:55;94064.75;;;16.61;nan
23166;BME280;11751;42.700;24.170;2023-04-28T12:43:21;94060.75;;;16.35;nan
23166;BME280;11751;42.700;24.170;2023-04-28T12:45:52;94068.19;;;16.69;nan
23166;BME280;11751;42.700;24.170;2023-04-28T12:48:18;94075.59;;;16.74;nan
23166;BME280;11751;42.700;24.170;2023-04-28T12:50:44;94061.31;;;16.72;nan
23166;BME280;11751;42.700;24.170;2023-04-28T12:53:10;94063.31;;;17.00;nan
23166;BME280;11751;42.700;24.170;2023-04-28T12:55:36;94014.09;;;17.23;nan
23166;BME280;11751;42.700;24.170;2023-04-28T12:58:04;94058.88;;;16.97;nan
23166;BME280;11751;42.700;24.170;2023-04-28T13:00:32;94061.19;;;16.51;nan
23166;BME280;11751;42.700;24.170;2023-04-28T13:02:57;94057.78;;;16.52;nan
23166;BME280;11751;42.700;24.170;2023-04-28T13:05:23;94055.41;;;16.49;nan
23166;BME280;11751;42.700;24.170;2023-04-28T13:07:49;94053.03;;;16.17;nan
23166;BME280;11751;42.700;24.170;2023-04-28T13:10:15;94053.03;;;15.98;nan
23166;BME280;11751;42.700;24.170;2023-04-28T13:12:42;94042.47;;;15.89;nan
23166;BME280;11751;42.700;24.170;2023-04-28T13:15:08;94055.19;;;15.62;nan
23166;BME280;11751;42.700;24.170;2023-04-28T13:17:33;94053.25;;;15.64;nan
23166;BME280;11751;42.700;24.170;2023-04-28T13:19:59;94053.75;;;15.89;nan
23166;BME280;11751;42.700;24.170;2023-04-28T13:22:25;94047.94;;;15.97;nan
23166;BME280;11751;42.700;24.170;2023-04-28T13:24:51;94038.41;;;15.73;nan
23166;BME280;11751;42.700;24.170;2023-04-28T13:27:16;94043.81;;;16.07;nan
23166;BME280;11751;42.700;24.170;2023-04-28T13:29:43;94041.72;;;15.98;nan
23166;BME280;11751;42.700;24.170;2023-04-28T13:32:08;94035.19;;;16.43;nan
23166;BME280;11751;42.700;24.170;2023-04-28T13:34:33;94044.50;;;16.74;nan
23166;BME280;11751;42.700;24.170;2023-04-28T13:36:59;94044.19;;;16.70;nan
23166;BME280;11751;42.700;24.170;2023-04-28T13:39:24;94041.19;;;16.87;nan
23166;BME280;11751;42.700;24.170;2023-04-28T13:41:50;94041.31;;;16.89;nan
23166;BME280;11751;42.700;24.170;2023-04-28T13:44:16;94033.66;;;17.10;nan
23166;BME280;11751;42.700;24.170;2023-04-28T13:46:41;94037.03;;;17.27;nan
23166;BME280;11751;42.700;24.170;2023-04-28T13:49:08;94040.19;;;16.73;nan
23166;BME280;11751;42.700;24.170;2023-04-28T13:51:34;94038.16;;;16.45;nan
23166;BME280;11751;42.700;24.170;2023-04-28T13:53:59;94029.25;;;16.20;nan
23166;BME280;11751;42.700;24.170;2023-04-28T13:56:29;94042.00;;;16.21;nan
23166;BME280;11751;42.700;24.170;2023-04-28T13:58:55;94028.94;;;15.97;nan
23166;BME280;11751;42.700;24.170;2023-04-28T14:01:20;94039.06;;;16.38;nan
23166;BME280;11751;42.700;24.170;2023-04-28T14:03:46;94033.97;;;16.55;nan
23166;BME280;11751;42.700;24.170;2023-04-28T14:06:11;94035.25;;;16.83;nan
23166;BME280;11751;42.700;24.170;2023-04-28T14:08:37;94031.59;;;16.52;nan
23166;BME280;11751;42.700;24.170;2023-04-28T14:11:02;94027.53;;;16.83;nan
23166;BME280;11751;42.700;24.170;2023-04-28T14:13:28;94033.53;;;16.49;nan